sensor_id;sensor_type;location;lat;lon;timestamp;temperature;humidity
4520;DHT22;2272;49.226;8.108;2023-04-25T00:01:55;7.40;99.90
4520;DHT22;2272;49.226;8.108;2023-04-25T00:04:22;7.40;99.90
4520;DHT22;2272;49.226;8.108;2023-04-25T00:06:48;7.40;99.90
4520;DHT22;2272;49.226;8.108;2023-04-25T00:09:15;7.40;99.90
4520;DHT22;2272;49.226;8.108;2023-04-25T00:11:43;7.50;99.90
4520;DHT22;2272;49.226;8.108;2023-04-25T00:14:10;7.50;99.90
4520;DHT22;2272;49.226;8.108;2023-04-25T00:16:36;7.40;99.90
4520;DHT22;2272;49.226;8.108;2023-04-25T00:19:04;7.40;99.90
4520;DHT22;2272;49.226;8.108;2023-04-25T00:21:31;7.40;99.90
4520;DHT22;2272;49.226;8.108;2023-04-25T00:23:59;7.30;99.90
4520;DHT22;2272;49.226;8.108;2023-04-25T00:26:27;7.30;99.90
4520;DHT22;2272;49.226;8.108;2023-04-25T00:28:55;7.20;99.90
4520;DHT22;2272;49.226;8.108;2023-04-25T00:31:22;7.20;99.90
4520;DHT22;2272;49.226;8.108;2023-04-25T00:33:49;7.10;99.90
4520;DHT22;2272;49.226;8.108;2023-04-25T00:36:15;7.00;99.90
4520;DHT22;2272;49.226;8.108;2023-04-25T00:38:43;7.00;99.90
4520;DHT22;2272;49.226;8.108;2023-04-25T00:41:10;7.00;99.90
4520;DHT22;2272;49.226;8.108;2023-04-25T00:43:38;7.00;99.90
4520;DHT22;2272;49.226;8.108;2023-04-25T00:46:07;7.00;99.90
4520;DHT22;2272;49.226;8.108;2023-04-25T00:48:34;6.90;99.90
4520;DHT22;2272;49.226;8.108;2023-04-25T00:51:01;6.90;99.90
4520;DHT22;2272;49.226;8.108;2023-04-25T00:53:28;6.90;99.90
4520;DHT22;2272;49.226;8.108;2023-04-25T00:55:57;6.90;99.90
4520;DHT22;2272;49.226;8.108;2023-04-25T00:58:24;6.90;99.90
4520;DHT22;2272;49.226;8.108;2023-04-25T01:00:51;6.90;99.90
4520;DHT22;2272;49.226;8.108;2023-04-25T01:03:20;6.90;99.90
4520;DHT22;2272;49.226;8.108;2023-04-25T01:05:47;6.90;99.90
4520;DHT22;2272;49.226;8.108;2023-04-25T01:08:14;6.90;99.90
4520;DHT22;2272;49.226;8.108;2023-04-25T01:10:41;6.90;99.90
4520;DHT22;2272;49.226;8.108;2023-04-25T01:13:08;6.90;99.90
4520;DHT22;2272;49.226;8.108;2023-04-25T01:15:35;6.90;99.90
4520;DHT22;2272;49.226;8.108;2023-04-25T01:18:03;6.90;99.90
4520;DHT22;2272;49.226;8.108;2023-04-25T01:20:32;7.00;99.90
4520;DHT22;2272;49.226;8.108;2023-04-25T01:23:01;6.90;99.90
4520;DHT22;2272;49.226;8.108;2023-04-25T01:25:29;7.00;99.90
4520;DHT22;2272;49.226;8.108;2023-04-25T01:27:56;7.00;99.90
4520;DHT22;2272;49.226;8.108;2023-04-25T01:30:24;7.00;99.90
4520;DHT22;2272;49.226;8.108;2023-04-25T01:32:52;7.00;99.90
4520;DHT22;2272;49.226;8.108;2023-04-25T01:35:20;7.00;99.90
4520;DHT22;2272;49.226;8.108;2023-04-25T01:37:49;7.00;99.90
4520;DHT22;2272;49.226;8.108;2023-04-25T01:40:17;7.00;99.90
4520;DHT22;2272;49.226;8.108;2023-04-25T01:42:45;7.10;99.90
4520;DHT22;2272;49.226;8.108;2023-04-25T01:45:12;7.10;99.90
4520;DHT22;2272;49.226;8.108;2023-04-25T01:47:39;7.10;99.90
4520;DHT22;2272;49.226;8.108;2023-04-25T01:50:08;7.10;99.90
4520;DHT22;2272;49.226;8.108;2023-04-25T01:52:35;7.20;99.90
4520;DHT22;2272;49.226;8.108;2023-04-25T01:55:02;7.20;99.90
4520;DHT22;2272;49.226;8.108;2023-04-25T01:57:30;7.20;99.90
4520;DHT22;2272;49.226;8.108;2023-04-25T01:59:59;7.20;99.90
4520;DHT22;2272;49.226;8.108;2023-04-25T02:02:26;7.10;99.90
4520;DHT22;2272;49.226;8.108;2023-04-25T02:04:53;7.10;99.90
4520;DHT22;2272;49.226;8.108;2023-04-25T02:07:21;7.10;99.90
4520;DHT22;2272;49.226;8.108;2023-04-25T02:09:48;7.10;99.90
4520;DHT22;2272;49.226;8.108;2023-04-25T02:12:15;7.00;99.90
4520;DHT22;2272;49.226;8.108;2023-04-25T02:14:43;7.10;99.90
4520;DHT22;2272;49.226;8.108;2023-04-25T02:17:10;7.00;99.90
4520;DHT22;2272;49.226;8.108;2023-04-25T02:19:37;7.10;99.90
4520;DHT22;2272;49.226;8.108;2023-04-25T02:22:04;7.10;99.90
4520;DHT22;2272;49.226;8.108;2023-04-25T02:24:31;7.10;99.90
4520;DHT22;2272;49.226;8.108;2023-04-25T02:26:59;7.10;99.90
4520;DHT22;2272;49.226;8.108;2023-04-25T02:29:25;7.10;99.90
4520;DHT22;2272;49.226;8.108;2023-04-25T02:31:54;7.20;99.90
4520;DHT22;2272;49.226;8.108;2023-04-25T02:34:20;7.20;99.90
4520;DHT22;2272;49.226;8.108;2023-04-25T02:36:48;7.10;99.90
4520;DHT22;2272;49.226;8.108;2023-04-25T02:39:15;7.00;99.90
4520;DHT22;2272;49.226;8.108;2023-04-25T02:41:41;6.90;99.90
4520;DHT22;2272;49.226;8.108;2023-04-25T02:44:08;6.70;99.90
4520;DHT22;2272;49.226;8.108;2023-04-25T02:46:35;6.60;99.90
4520;DHT22;2272;49.226;8.108;2023-04-25T02:49:03;6.50;99.90
4520;DHT22;2272;49.226;8.108;2023-04-25T02:51:30;6.50;99.90
4520;DHT22;2272;49.226;8.108;2023-04-25T02:53:58;6.40;99.90
4520;DHT22;2272;49.226;8.108;2023-04-25T02:56:24;6.30;99.90
4520;DHT22;2272;49.226;8.108;2023-04-25T02:58:52;6.20;99.90
4520;DHT22;2272;49.226;8.108;2023-04-25T03:01:18;6.20;99.90
4520;DHT22;2272;49.226;8.108;2023-04-25T03:03:45;6.00;99.90
4520;DHT22;2272;49.226;8.108;2023-04-25T03:06:13;5.90;99.90
4520;DHT22;2272;49.226;8.108;2023-04-25T03:08:40;5.90;99.90
4520;DHT22;2272;49.226;8.108;2023-04-25T03:11:08;5.80;99.90
4520;DHT22;2272;49.226;8.108;2023-04-25T03:13:35;5.80;99.90
4520;DHT22;2272;49.226;8.108;2023-04-25T03:16:01;5.80;99.90
4520;DHT22;2272;49.226;8.108;2023-04-25T03:18:28;5.80;99.90
4520;DHT22;2272;49.226;8.108;2023-04-25T03:20:55;5.70;99.90
4520;DHT22;2272;49.226;8.108;2023-04-25T03:23:23;5.70;99.90
4520;DHT22;2272;49.226;8.108;2023-04-25T03:25:50;5.80;99.90
4520;DHT22;2272;49.226;8.108;2023-04-25T03:28:16;5.80;99.90
4520;DHT22;2272;49.226;8.108;2023-04-25T03:30:43;5.90;99.90
4520;DHT22;2272;49.226;8.108;2023-04-25T03:33:10;5.90;99.90
4520;DHT22;2272;49.226;8.108;2023-04-25T03:35:36;6.00;99.90
4520;DHT22;2272;49.226;8.108;2023-04-25T03:38:03;6.10;99.90
4520;DHT22;2272;49.226;8.108;2023-04-25T03:40:31;6.10;99.90
4520;DHT22;2272;49.226;8.108;2023-04-25T03:42:58;6.20;99.90
4520;DHT22;2272;49.226;8.108;2023-04-25T03:45:25;6.20;99.90
4520;DHT22;2272;49.226;8.108;2023-04-25T03:47:51;6.20;99.90
4520;DHT22;2272;49.226;8.108;2023-04-25T03:50:18;6.10;99.90
4520;DHT22;2272;49.226;8.108;2023-04-25T03:52:45;6.10;99.90
4520;DHT22;2272;49.226;8.108;2023-04-25T03:55:11;6.10;99.90
4520;DHT22;2272;49.226;8.108;2023-04-25T03:57:39;6.20;99.90
4520;DHT22;2272;49.226;8.108;2023-04-25T04:00:07;6.20;99.90
4520;DHT22;2272;49.226;8.108;2023-04-25T04:02:34;6.20;99.90
4520;DHT22;2272;49.226;8.108;2023-04-25T04:05:03;6.30;99.90
4520;DHT22;2272;49.226;8.108;2023-04-25T04:07:29;6.30;99.90
4520;DHT22;2272;49.226;8.108;2023-04-25T04:09:58;6.30;99.90
4520;DHT22;2272;49.226;8.108;2023-04-25T04:12:25;6.20;99.90
4520;DHT22;2272;49.226;8.108;2023-04-25T04:14:53;6.10;99.90
4520;DHT22;2272;49.226;8.108;2023-04-25T04:17:19;6.10;99.90
4520;DHT22;2272;49.226;8.108;2023-04-25T04:19:46;6.00;99.90
4520;DHT22;2272;49.226;8.108;2023-04-25T04:22:13;6.00;99.90
4520;DHT22;2272;49.226;8.108;2023-04-25T04:24:39;6.00;99.90
4520;DHT22;2272;49.226;8.108;2023-04-25T04:27:09;6.10;99.90
4520;DHT22;2272;49.226;8.108;2023-04-25T04:29:38;6.10;99.90
4520;DHT22;2272;49.226;8.108;2023-04-25T04:32:06;6.20;99.90
4520;DHT22;2272;49.226;8.108;2023-04-25T04:34:45;6.30;99.90
4520;DHT22;2272;49.226;8.108;2023-04-25T04:37:12;6.40;99.90
4520;DHT22;2272;49.226;8.108;2023-04-25T04:39:40;6.50;99.90
4520;DHT22;2272;49.226;8.108;2023-04-25T04:42:06;6.50;99.90
4520;DHT22;2272;49.226;8.108;2023-04-25T04:44:34;6.60;99.90
4520;DHT22;2272;49.226;8.108;2023-04-25T04:47:00;6.70;99.90
4520;DHT22;2272;49.226;8.108;2023-04-25T04:49:30;6.80;99.90
4520;DHT22;2272;49.226;8.108;2023-04-25T04:51:57;6.90;99.90
4520;DHT22;2272;49.226;8.108;2023-04-25T04:54:25;7.10;99.90
4520;DHT22;2272;49.226;8.108;2023-04-25T04:56:52;7.30;99.90
4520;DHT22;2272;49.226;8.108;2023-04-25T04:59:19;7.50;99.90
4520;DHT22;2272;49.226;8.108;2023-04-25T05:01:45;7.70;99.90
4520;DHT22;2272;49.226;8.108;2023-04-25T05:04:12;8.00;99.90
4520;DHT22;2272;49.226;8.108;2023-04-25T05:06:40;8.10;99.90
4520;DHT22;2272;49.226;8.108;2023-04-25T05:09:07;8.30;99.90
4520;DHT22;2272;49.226;8.108;2023-04-25T05:11:34;8.40;99.90
4520;DHT22;2272;49.226;8.108;2023-04-25T05:14:00;8.50;99.90
4520;DHT22;2272;49.226;8.108;2023-04-25T05:16:27;8.50;99.90
4520;DHT22;2272;49.226;8.108;2023-04-25T05:18:54;8.50;99.90
4520;DHT22;2272;49.226;8.108;2023-04-25T05:21:20;8.40;99.90
4520;DHT22;2272;49.226;8.108;2023-04-25T05:23:49;8.40;99.90
4520;DHT22;2272;49.226;8.108;2023-04-25T05:26:15;8.30;99.90
4520;DHT22;2272;49.226;8.108;2023-04-25T05:28:42;8.30;99.90
4520;DHT22;2272;49.226;8.108;2023-04-25T05:31:09;8.30;99.90
4520;DHT22;2272;49.226;8.108;2023-04-25T05:33:36;8.30;99.90
4520;DHT22;2272;49.226;8.108;2023-04-25T05:36:03;8.30;99.90
4520;DHT22;2272;49.226;8.108;2023-04-25T05:38:30;8.30;99.90
4520;DHT22;2272;49.226;8.108;2023-04-25T05:40:58;8.30;99.90
4520;DHT22;2272;49.226;8.108;2023-04-25T05:43:25;8.20;99.90
4520;DHT22;2272;49.226;8.108;2023-04-25T05:45:52;8.20;99.90
4520;DHT22;2272;49.226;8.108;2023-04-25T05:48:18;8.10;99.90
4520;DHT22;2272;49.226;8.108;2023-04-25T05:50:45;8.10;99.90
4520;DHT22;2272;49.226;8.108;2023-04-25T05:53:12;8.00;99.90
4520;DHT22;2272;49.226;8.108;2023-04-25T05:55:38;7.90;99.90
4520;DHT22;2272;49.226;8.108;2023-04-25T05:58:07;7.90;99.90
4520;DHT22;2272;49.226;8.108;2023-04-25T06:00:34;7.80;99.90
4520;DHT22;2272;49.226;8.108;2023-04-25T06:03:00;7.70;99.90
4520;DHT22;2272;49.226;8.108;2023-04-25T06:05:27;7.70;99.90
4520;DHT22;2272;49.226;8.108;2023-04-25T06:07:54;7.60;99.90
4520;DHT22;2272;49.226;8.108;2023-04-25T06:10:21;7.60;99.90
4520;DHT22;2272;49.226;8.108;2023-04-25T06:12:48;7.70;99.90
4520;DHT22;2272;49.226;8.108;2023-04-25T06:15:16;7.80;99.90
4520;DHT22;2272;49.226;8.108;2023-04-25T06:17:43;7.80;99.90
4520;DHT22;2272;49.226;8.108;2023-04-25T06:20:10;7.80;99.90
4520;DHT22;2272;49.226;8.108;2023-04-25T06:22:37;7.80;99.90
4520;DHT22;2272;49.226;8.108;2023-04-25T06:25:04;7.70;99.90
4520;DHT22;2272;49.226;8.108;2023-04-25T06:27:32;7.70;99.90
4520;DHT22;2272;49.226;8.108;2023-04-25T06:29:59;7.70;99.90
4520;DHT22;2272;49.226;8.108;2023-04-25T06:32:27;7.80;99.90
4520;DHT22;2272;49.226;8.108;2023-04-25T06:34:55;7.80;99.90
4520;DHT22;2272;49.226;8.108;2023-04-25T06:37:22;7.90;99.90
4520;DHT22;2272;49.226;8.108;2023-04-25T06:39:48;7.90;99.90
4520;DHT22;2272;49.226;8.108;2023-04-25T06:42:15;8.00;99.90
4520;DHT22;2272;49.226;8.108;2023-04-25T06:44:42;8.00;99.90
4520;DHT22;2272;49.226;8.108;2023-04-25T06:47:08;8.00;99.90
4520;DHT22;2272;49.226;8.108;2023-04-25T06:49:36;8.00;99.90
4520;DHT22;2272;49.226;8.108;2023-04-25T06:52:03;8.00;99.90
4520;DHT22;2272;49.226;8.108;2023-04-25T06:54:30;7.90;99.90
4520;DHT22;2272;49.226;8.108;2023-04-25T06:56:57;8.00;99.90
4520;DHT22;2272;49.226;8.108;2023-04-25T06:59:23;7.90;99.90
4520;DHT22;2272;49.226;8.108;2023-04-25T07:01:50;7.90;99.90
4520;DHT22;2272;49.226;8.108;2023-04-25T07:04:16;7.90;99.90
4520;DHT22;2272;49.226;8.108;2023-04-25T07:06:45;7.90;99.90
4520;DHT22;2272;49.226;8.108;2023-04-25T07:09:13;7.80;99.90
4520;DHT22;2272;49.226;8.108;2023-04-25T07:11:39;7.80;99.90
4520;DHT22;2272;49.226;8.108;2023-04-25T07:14:06;7.80;99.90
4520;DHT22;2272;49.226;8.108;2023-04-25T07:16:33;7.70;99.90
4520;DHT22;2272;49.226;8.108;2023-04-25T07:18:59;7.70;99.90
4520;DHT22;2272;49.226;8.108;2023-04-25T07:21:26;7.70;99.90
4520;DHT22;2272;49.226;8.108;2023-04-25T07:23:54;7.60;99.90
4520;DHT22;2272;49.226;8.108;2023-04-25T07:26:20;7.50;99.90
4520;DHT22;2272;49.226;8.108;2023-04-25T07:28:47;7.50;99.90
4520;DHT22;2272;49.226;8.108;2023-04-25T07:31:16;7.50;99.90
4520;DHT22;2272;49.226;8.108;2023-04-25T07:33:43;7.50;99.90
4520;DHT22;2272;49.226;8.108;2023-04-25T07:36:10;7.50;99.90
4520;DHT22;2272;49.226;8.108;2023-04-25T07:38:37;7.50;99.90
4520;DHT22;2272;49.226;8.108;2023-04-25T07:41:05;7.60;99.90
4520;DHT22;2272;49.226;8.108;2023-04-25T07:43:32;7.50;99.90
4520;DHT22;2272;49.226;8.108;2023-04-25T07:45:59;7.50;99.90
4520;DHT22;2272;49.226;8.108;2023-04-25T07:48:25;7.60;99.90
4520;DHT22;2272;49.226;8.108;2023-04-25T07:50:52;7.70;99.90
4520;DHT22;2272;49.226;8.108;2023-04-25T07:53:19;7.80;99.90
4520;DHT22;2272;49.226;8.108;2023-04-25T07:55:45;7.90;99.90
4520;DHT22;2272;49.226;8.108;2023-04-25T07:58:13;7.90;99.90
4520;DHT22;2272;49.226;8.108;2023-04-25T08:00:40;7.90;99.90
4520;DHT22;2272;49.226;8.108;2023-04-25T08:03:09;7.90;99.90
4520;DHT22;2272;49.226;8.108;2023-04-25T08:05:35;7.90;99.90
4520;DHT22;2272;49.226;8.108;2023-04-25T08:08:02;7.90;99.90
4520;DHT22;2272;49.226;8.108;2023-04-25T08:10:31;7.90;99.90
4520;DHT22;2272;49.226;8.108;2023-04-25T08:12:58;7.80;99.90
4520;DHT22;2272;49.226;8.108;2023-04-25T08:15:26;7.80;99.90
4520;DHT22;2272;49.226;8.108;2023-04-25T08:17:53;7.70;99.90
4520;DHT22;2272;49.226;8.108;2023-04-25T08:20:20;7.60;99.90
4520;DHT22;2272;49.226;8.108;2023-04-25T08:22:46;7.30;99.90
4520;DHT22;2272;49.226;8.108;2023-04-25T08:25:14;7.00;99.90
4520;DHT22;2272;49.226;8.108;2023-04-25T08:27:41;6.80;99.90
4520;DHT22;2272;49.226;8.108;2023-04-25T08:30:08;6.70;99.90
4520;DHT22;2272;49.226;8.108;2023-04-25T08:32:36;6.70;99.90
4520;DHT22;2272;49.226;8.108;2023-04-25T08:35:04;6.60;99.90
4520;DHT22;2272;49.226;8.108;2023-04-25T08:42:27;6.60;99.90
4520;DHT22;2272;49.226;8.108;2023-04-25T08:44:54;6.70;99.90
4520;DHT22;2272;49.226;8.108;2023-04-25T08:47:22;6.70;99.90
4520;DHT22;2272;49.226;8.108;2023-04-25T08:49:53;6.60;99.90
4520;DHT22;2272;49.226;8.108;2023-04-25T08:52:22;6.60;99.90
4520;DHT22;2272;49.226;8.108;2023-04-25T08:54:49;6.60;99.90
4520;DHT22;2272;49.226;8.108;2023-04-25T08:59:46;6.50;99.90
4520;DHT22;2272;49.226;8.108;2023-04-25T09:02:13;6.50;99.90
4520;DHT22;2272;49.226;8.108;2023-04-25T09:04:43;6.50;99.90
4520;DHT22;2272;49.226;8.108;2023-04-25T09:07:11;6.50;99.90
4520;DHT22;2272;49.226;8.108;2023-04-25T09:09:41;6.50;99.90
4520;DHT22;2272;49.226;8.108;2023-04-25T09:12:07;6.50;99.90
4520;DHT22;2272;49.226;8.108;2023-04-25T09:14:34;6.60;99.90
4520;DHT22;2272;49.226;8.108;2023-04-25T09:17:03;6.70;99.90
4520;DHT22;2272;49.226;8.108;2023-04-25T09:19:31;6.80;99.90
4520;DHT22;2272;49.226;8.108;2023-04-25T09:21:59;6.80;99.90
4520;DHT22;2272;49.226;8.108;2023-04-25T09:24:35;6.90;99.90
4520;DHT22;2272;49.226;8.108;2023-04-25T09:27:06;6.90;99.90
4520;DHT22;2272;49.226;8.108;2023-04-25T09:29:34;7.00;99.90
4520;DHT22;2272;49.226;8.108;2023-04-25T09:32:15;7.00;99.90
4520;DHT22;2272;49.226;8.108;2023-04-25T09:34:43;7.00;99.90
4520;DHT22;2272;49.226;8.108;2023-04-25T09:37:17;7.00;99.90
4520;DHT22;2272;49.226;8.108;2023-04-25T09:39:47;7.10;99.90
4520;DHT22;2272;49.226;8.108;2023-04-25T09:42:15;7.20;99.90
4520;DHT22;2272;49.226;8.108;2023-04-25T09:44:43;7.40;99.90
4520;DHT22;2272;49.226;8.108;2023-04-25T09:47:11;7.60;99.90
4520;DHT22;2272;49.226;8.108;2023-04-25T09:49:40;7.90;99.90
4520;DHT22;2272;49.226;8.108;2023-04-25T09:52:07;8.00;99.90
4520;DHT22;2272;49.226;8.108;2023-04-25T09:54:34;8.10;99.90
4520;DHT22;2272;49.226;8.108;2023-04-25T09:57:10;8.10;99.90
4520;DHT22;2272;49.226;8.108;2023-04-25T09:59:39;8.10;99.90
4520;DHT22;2272;49.226;8.108;2023-04-25T10:02:07;8.10;99.90
4520;DHT22;2272;49.226;8.108;2023-04-25T10:04:35;8.00;99.90
4520;DHT22;2272;49.226;8.108;2023-04-25T10:07:05;8.00;99.90
4520;DHT22;2272;49.226;8.108;2023-04-25T10:09:33;7.90;99.90
4520;DHT22;2272;49.226;8.108;2023-04-25T10:12:00;7.90;99.90
4520;DHT22;2272;49.226;8.108;2023-04-25T10:14:29;7.70;99.90
4520;DHT22;2272;49.226;8.108;2023-04-25T10:16:57;7.60;99.90
4520;DHT22;2272;49.226;8.108;2023-04-25T10:19:24;7.60;99.90
4520;DHT22;2272;49.226;8.108;2023-04-25T10:21:55;7.50;99.90
4520;DHT22;2272;49.226;8.108;2023-04-25T10:24:23;7.40;99.90
4520;DHT22;2272;49.226;8.108;2023-04-25T10:26:51;7.30;99.90
4520;DHT22;2272;49.226;8.108;2023-04-25T10:29:25;7.20;99.90
4520;DHT22;2272;49.226;8.108;2023-04-25T10:31:53;7.10;99.90
4520;DHT22;2272;49.226;8.108;2023-04-25T10:34:24;7.00;99.90
4520;DHT22;2272;49.226;8.108;2023-04-25T10:36:52;7.00;99.90
4520;DHT22;2272;49.226;8.108;2023-04-25T10:39:23;7.30;99.90
4520;DHT22;2272;49.226;8.108;2023-04-25T10:41:55;7.80;99.90
4520;DHT22;2272;49.226;8.108;2023-04-25T10:44:22;8.30;99.90
4520;DHT22;2272;49.226;8.108;2023-04-25T10:46:49;8.70;99.90
4520;DHT22;2272;49.226;8.108;2023-04-25T10:49:33;9.00;99.90
4520;DHT22;2272;49.226;8.108;2023-04-25T10:52:18;9.30;99.90
4520;DHT22;2272;49.226;8.108;2023-04-25T10:54:49;9.30;99.90
4520;DHT22;2272;49.226;8.108;2023-04-25T10:57:31;9.20;99.90
4520;DHT22;2272;49.226;8.108;2023-04-25T11:00:10;9.30;99.90
4520;DHT22;2272;49.226;8.108;2023-04-25T11:02:41;9.50;99.90
4520;DHT22;2272;49.226;8.108;2023-04-25T11:05:09;9.80;99.90
4520;DHT22;2272;49.226;8.108;2023-04-25T11:07:48;10.20;99.90
4520;DHT22;2272;49.226;8.108;2023-04-25T11:10:16;10.60;99.90
4520;DHT22;2272;49.226;8.108;2023-04-25T11:12:42;11.00;99.90
4520;DHT22;2272;49.226;8.108;2023-04-25T11:15:09;11.30;99.90
4520;DHT22;2272;49.226;8.108;2023-04-25T11:17:36;11.50;99.90
4520;DHT22;2272;49.226;8.108;2023-04-25T11:20:05;11.80;99.90
4520;DHT22;2272;49.226;8.108;2023-04-25T11:22:38;12.00;99.90
4520;DHT22;2272;49.226;8.108;2023-04-25T11:25:06;12.30;99.90
4520;DHT22;2272;49.226;8.108;2023-04-25T11:27:33;12.80;99.90
4520;DHT22;2272;49.226;8.108;2023-04-25T11:30:10;13.20;99.90
4520;DHT22;2272;49.226;8.108;2023-04-25T11:32:38;13.40;99.90
4520;DHT22;2272;49.226;8.108;2023-04-25T11:35:06;13.40;99.90
4520;DHT22;2272;49.226;8.108;2023-04-25T11:37:33;13.40;99.90
4520;DHT22;2272;49.226;8.108;2023-04-25T11:40:02;13.30;99.90
4520;DHT22;2272;49.226;8.108;2023-04-25T11:42:31;13.30;99.90
4520;DHT22;2272;49.226;8.108;2023-04-25T11:44:58;13.30;99.90
4520;DHT22;2272;49.226;8.108;2023-04-25T11:47:28;13.10;99.90
4520;DHT22;2272;49.226;8.108;2023-04-25T11:49:55;13.10;99.90
4520;DHT22;2272;49.226;8.108;2023-04-25T11:52:22;13.20;99.90
4520;DHT22;2272;49.226;8.108;2023-04-25T11:54:48;13.40;99.90
4520;DHT22;2272;49.226;8.108;2023-04-25T11:57:18;13.60;99.90
4520;DHT22;2272;49.226;8.108;2023-04-25T11:59:45;13.90;99.90
4520;DHT22;2272;49.226;8.108;2023-04-25T12:02:24;14.20;99.90
4520;DHT22;2272;49.226;8.108;2023-04-25T12:04:51;14.20;99.90
4520;DHT22;2272;49.226;8.108;2023-04-25T12:07:18;14.30;99.90
4520;DHT22;2272;49.226;8.108;2023-04-25T12:09:51;14.40;99.90
4520;DHT22;2272;49.226;8.108;2023-04-25T12:12:19;14.80;99.90
4520;DHT22;2272;49.226;8.108;2023-04-25T12:14:47;15.40;99.90
4520;DHT22;2272;49.226;8.108;2023-04-25T12:17:14;15.90;99.90
4520;DHT22;2272;49.226;8.108;2023-04-25T12:19:41;16.20;99.90
4520;DHT22;2272;49.226;8.108;2023-04-25T12:22:19;16.20;99.90
4520;DHT22;2272;49.226;8.108;2023-04-25T12:24:47;16.20;99.90
4520;DHT22;2272;49.226;8.108;2023-04-25T12:27:15;16.00;99.90
4520;DHT22;2272;49.226;8.108;2023-04-25T12:29:52;15.70;99.90
4520;DHT22;2272;49.226;8.108;2023-04-25T12:32:19;15.30;99.90
4520;DHT22;2272;49.226;8.108;2023-04-25T12:34:46;14.70;99.90
4520;DHT22;2272;49.226;8.108;2023-04-25T12:37:13;14.10;99.90
4520;DHT22;2272;49.226;8.108;2023-04-25T12:39:40;13.60;99.90
4520;DHT22;2272;49.226;8.108;2023-04-25T12:42:07;12.90;99.90
4520;DHT22;2272;49.226;8.108;2023-04-25T12:44:37;12.40;99.90
4520;DHT22;2272;49.226;8.108;2023-04-25T12:47:05;12.00;99.90
4520;DHT22;2272;49.226;8.108;2023-04-25T12:49:32;11.90;99.90
4520;DHT22;2272;49.226;8.108;2023-04-25T12:51:59;12.00;99.90
4520;DHT22;2272;49.226;8.108;2023-04-25T12:54:26;12.40;99.90
4520;DHT22;2272;49.226;8.108;2023-04-25T12:56:53;12.90;99.90
4520;DHT22;2272;49.226;8.108;2023-04-25T12:59:20;13.30;99.90
4520;DHT22;2272;49.226;8.108;2023-04-25T13:01:47;13.70;99.90
4520;DHT22;2272;49.226;8.108;2023-04-25T13:04:15;14.30;99.90
4520;DHT22;2272;49.226;8.108;2023-04-25T13:06:42;14.60;99.90
4520;DHT22;2272;49.226;8.108;2023-04-25T13:09:10;14.70;99.90
4520;DHT22;2272;49.226;8.108;2023-04-25T13:11:37;14.70;99.90
4520;DHT22;2272;49.226;8.108;2023-04-25T13:14:04;14.50;99.90
4520;DHT22;2272;49.226;8.108;2023-04-25T13:16:32;14.20;99.90
4520;DHT22;2272;49.226;8.108;2023-04-25T13:18:58;14.00;99.90
4520;DHT22;2272;49.226;8.108;2023-04-25T13:21:26;13.90;99.90
4520;DHT22;2272;49.226;8.108;2023-04-25T13:23:53;14.00;99.90
4520;DHT22;2272;49.226;8.108;2023-04-25T13:26:20;14.30;99.90
4520;DHT22;2272;49.226;8.108;2023-04-25T13:28:46;14.80;99.90
4520;DHT22;2272;49.226;8.108;2023-04-25T13:31:13;15.10;99.90
4520;DHT22;2272;49.226;8.108;2023-04-25T13:33:40;15.20;99.90
4520;DHT22;2272;49.226;8.108;2023-04-25T13:36:07;15.30;99.90
4520;DHT22;2272;49.226;8.108;2023-04-25T13:38:35;15.40;99.90
4520;DHT22;2272;49.226;8.108;2023-04-25T13:41:02;15.40;99.90
4520;DHT22;2272;49.226;8.108;2023-04-25T13:43:28;15.00;99.90
4520;DHT22;2272;49.226;8.108;2023-04-25T13:45:55;14.80;99.90
4520;DHT22;2272;49.226;8.108;2023-04-25T13:48:22;14.60;99.90
4520;DHT22;2272;49.226;8.108;2023-04-25T13:50:49;14.50;99.90
4520;DHT22;2272;49.226;8.108;2023-04-25T13:53:16;14.70;99.90
4520;DHT22;2272;49.226;8.108;2023-04-25T13:55:44;14.90;99.90
4520;DHT22;2272;49.226;8.108;2023-04-25T13:58:11;15.10;99.90
4520;DHT22;2272;49.226;8.108;2023-04-25T14:00:38;15.10;99.90
4520;DHT22;2272;49.226;8.108;2023-04-25T14:03:05;14.90;99.90
4520;DHT22;2272;49.226;8.108;2023-04-25T14:05:34;14.70;99.90
4520;DHT22;2272;49.226;8.108;2023-04-25T14:08:04;14.40;99.90
4520;DHT22;2272;49.226;8.108;2023-04-25T14:10:31;14.10;99.90
4520;DHT22;2272;49.226;8.108;2023-04-25T14:12:59;13.80;99.90
4520;DHT22;2272;49.226;8.108;2023-04-25T14:15:26;13.60;99.90
4520;DHT22;2272;49.226;8.108;2023-04-25T14:17:53;13.50;99.90
4520;DHT22;2272;49.226;8.108;2023-04-25T14:20:20;13.50;99.90
4520;DHT22;2272;49.226;8.108;2023-04-25T14:22:49;13.40;99.90
4520;DHT22;2272;49.226;8.108;2023-04-25T14:25:16;13.30;99.90
4520;DHT22;2272;49.226;8.108;2023-04-25T14:27:42;13.20;99.90
4520;DHT22;2272;49.226;8.108;2023-04-25T14:30:14;13.20;99.90
4520;DHT22;2272;49.226;8.108;2023-04-25T14:32:41;13.20;99.90
4520;DHT22;2272;49.226;8.108;2023-04-25T14:35:08;13.20;99.90
4520;DHT22;2272;49.226;8.108;2023-04-25T14:37:35;13.00;99.90
4520;DHT22;2272;49.226;8.108;2023-04-25T14:40:02;12.80;99.90
4520;DHT22;2272;49.226;8.108;2023-04-25T14:42:29;12.60;99.90
4520;DHT22;2272;49.226;8.108;2023-04-25T14:44:57;12.30;99.90
4520;DHT22;2272;49.226;8.108;2023-04-25T14:47:25;12.10;99.90
4520;DHT22;2272;49.226;8.108;2023-04-25T14:49:52;11.80;99.90
4520;DHT22;2272;49.226;8.108;2023-04-25T14:52:19;11.60;99.90
4520;DHT22;2272;49.226;8.108;2023-04-25T14:54:46;11.50;99.90
4520;DHT22;2272;49.226;8.108;2023-04-25T14:57:13;11.30;99.90
4520;DHT22;2272;49.226;8.108;2023-04-25T14:59:41;11.20;99.90
4520;DHT22;2272;49.226;8.108;2023-04-25T15:02:07;11.00;99.90
4520;DHT22;2272;49.226;8.108;2023-04-25T15:04:36;10.90;99.90
4520;DHT22;2272;49.226;8.108;2023-04-25T15:07:02;10.90;99.90
4520;DHT22;2272;49.226;8.108;2023-04-25T15:09:30;11.00;99.90
4520;DHT22;2272;49.226;8.108;2023-04-25T15:11:57;11.00;99.90
4520;DHT22;2272;49.226;8.108;2023-04-25T15:14:24;11.00;99.90
4520;DHT22;2272;49.226;8.108;2023-04-25T15:16:51;11.00;99.90
4520;DHT22;2272;49.226;8.108;2023-04-25T15:19:17;10.90;99.90
4520;DHT22;2272;49.226;8.108;2023-04-25T15:21:46;10.70;99.90
4520;DHT22;2272;49.226;8.108;2023-04-25T15:24:12;10.60;99.90
4520;DHT22;2272;49.226;8.108;2023-04-25T15:26:40;10.60;99.90
4520;DHT22;2272;49.226;8.108;2023-04-25T15:29:07;10.50;99.90
4520;DHT22;2272;49.226;8.108;2023-04-25T15:31:33;10.50;99.90
4520;DHT22;2272;49.226;8.108;2023-04-25T15:34:01;10.40;99.90
4520;DHT22;2272;49.226;8.108;2023-04-25T15:36:27;10.40;99.90
4520;DHT22;2272;49.226;8.108;2023-04-25T15:38:55;10.40;99.90
4520;DHT22;2272;49.226;8.108;2023-04-25T15:41:24;10.50;99.90
4520;DHT22;2272;49.226;8.108;2023-04-25T15:43:52;10.70;99.90
4520;DHT22;2272;49.226;8.108;2023-04-25T15:46:19;11.10;99.90
4520;DHT22;2272;49.226;8.108;2023-04-25T15:48:46;11.40;99.90
4520;DHT22;2272;49.226;8.108;2023-04-25T15:51:13;11.70;99.90
4520;DHT22;2272;49.226;8.108;2023-04-25T15:53:40;11.80;99.90
4520;DHT22;2272;49.226;8.108;2023-04-25T15:56:08;12.00;99.90
4520;DHT22;2272;49.226;8.108;2023-04-25T15:58:34;11.90;99.90
4520;DHT22;2272;49.226;8.108;2023-04-25T16:01:02;11.80;99.90
4520;DHT22;2272;49.226;8.108;2023-04-25T16:03:29;11.60;99.90
4520;DHT22;2272;49.226;8.108;2023-04-25T16:05:57;11.50;99.90
4520;DHT22;2272;49.226;8.108;2023-04-25T16:08:24;11.30;99.90
4520;DHT22;2272;49.226;8.108;2023-04-25T16:10:54;11.10;99.90
4520;DHT22;2272;49.226;8.108;2023-04-25T16:13:22;11.00;99.90
4520;DHT22;2272;49.226;8.108;2023-04-25T16:15:49;10.90;99.90
4520;DHT22;2272;49.226;8.108;2023-04-25T16:18:15;10.90;99.90
4520;DHT22;2272;49.226;8.108;2023-04-25T16:20:42;10.80;99.90
4520;DHT22;2272;49.226;8.108;2023-04-25T16:23:09;10.80;99.90